sensor_id;sensor_type;location;lat;lon;timestamp;pressure;altitude;pressure_sealevel;temperature;humidity
75617;BME280;64200;55.426;37.758;2023-04-27T00:01:52;98567.66;;;11.41;60.77
75617;BME280;64200;55.426;37.758;2023-04-27T00:06:53;98574.53;;;11.46;61.00
75617;BME280;64200;55.426;37.758;2023-04-27T00:11:53;98571.72;;;11.40;60.00
75617;BME280;64200;55.426;37.758;2023-04-27T00:16:54;98591.28;;;11.40;60.26
75617;BME280;64200;55.426;37.758;2023-04-27T00:21:55;98590.16;;;11.26;60.16
75617;BME280;64200;55.426;37.758;2023-04-27T00:26:57;98585.38;;;11.32;59.88
75617;BME280;64200;55.426;37.758;2023-04-27T00:31:57;98595.53;;;11.35;59.97
75617;BME280;64200;55.426;37.758;2023-04-27T00:36:58;98590.22;;;11.37;59.55
75617;BME280;64200;55.426;37.758;2023-04-27T00:41:59;98576.78;;;11.36;59.64
75617;BME280;64200;55.426;37.758;2023-04-27T00:47:00;98583.16;;;11.42;59.40
75617;BME280;64200;55.426;37.758;2023-04-27T00:52:01;98579.63;;;11.47;59.37
75617;BME280;64200;55.426;37.758;2023-04-27T00:57:02;98584.25;;;11.56;59.21
75617;BME280;64200;55.426;37.758;2023-04-27T01:02:03;98578.66;;;11.56;59.32
75617;BME280;64200;55.426;37.758;2023-04-27T01:07:03;98587.50;;;11.49;58.78
75617;BME280;64200;55.426;37.758;2023-04-27T01:12:04;98589.75;;;11.39;58.43
75617;BME280;64200;55.426;37.758;2023-04-27T01:17:05;98596.22;;;11.24;58.89
75617;BME280;64200;55.426;37.758;2023-04-27T01:22:06;98595.47;;;10.92;59.67
75617;BME280;64200;55.426;37.758;2023-04-27T01:27:06;98590.03;;;10.77;60.79
75617;BME280;64200;55.426;37.758;2023-04-27T01:32:07;98587.63;;;10.64;60.52
75617;BME280;64200;55.426;37.758;2023-04-27T01:37:07;98589.44;;;10.41;61.51
75617;BME280;64200;55.426;37.758;2023-04-27T01:42:08;98590.53;;;10.29;62.16
75617;BME280;64200;55.426;37.758;2023-04-27T01:47:08;98586.75;;;10.52;61.42
75617;BME280;64200;55.426;37.758;2023-04-27T01:52:09;98597.81;;;10.67;61.47
75617;BME280;64200;55.426;37.758;2023-04-27T01:57:09;98602.22;;;10.53;61.91
75617;BME280;64200;55.426;37.758;2023-04-27T02:02:10;98613.19;;;10.57;61.68
75617;BME280;64200;55.426;37.758;2023-04-27T02:07:10;98608.59;;;10.54;61.97
75617;BME280;64200;55.426;37.758;2023-04-27T02:12:11;98616.72;;;10.58;62.23
75617;BME280;64200;55.426;37.758;2023-04-27T02:17:11;98618.25;;;10.59;62.46
75617;BME280;64200;55.426;37.758;2023-04-27T02:22:12;98613.53;;;10.44;63.21
75617;BME280;64200;55.426;37.758;2023-04-27T02:27:12;98617.44;;;10.32;63.20
75617;BME280;64200;55.426;37.758;2023-04-27T02:32:13;98618.78;;;10.36;63.19
75617;BME280;64200;55.426;37.758;2023-04-27T02:37:13;98622.72;;;10.50;63.17
75617;BME280;64200;55.426;37.758;2023-04-27T02:42:14;98630.88;;;10.54;63.01
75617;BME280;64200;55.426;37.758;2023-04-27T02:47:15;98622.22;;;10.52;63.13
75617;BME280;64200;55.426;37.758;2023-04-27T02:52:16;98635.97;;;10.56;63.47
75617;BME280;64200;55.426;37.758;2023-04-27T02:57:16;98640.69;;;10.49;63.37
75617;BME280;64200;55.426;37.758;2023-04-27T03:02:17;98637.47;;;10.57;63.47
75617;BME280;64200;55.426;37.758;2023-04-27T03:07:17;98639.75;;;10.79;63.08
75617;BME280;64200;55.426;37.758;2023-04-27T03:12:18;98648.22;;;10.90;62.96
75617;BME280;64200;55.426;37.758;2023-04-27T03:17:18;98654.13;;;10.98;62.76
75617;BME280;64200;55.426;37.758;2023-04-27T03:22:19;98659.66;;;10.92;62.08
75617;BME280;64200;55.426;37.758;2023-04-27T03:27:20;98665.41;;;11.09;62.46
75617;BME280;64200;55.426;37.758;2023-04-27T03:32:20;98675.34;;;11.16;62.36
75617;BME280;64200;55.426;37.758;2023-04-27T03:37:21;98674.03;;;11.11;62.60
75617;BME280;64200;55.426;37.758;2023-04-27T03:42:21;98682.56;;;11.02;62.41
75617;BME280;64200;55.426;37.758;2023-04-27T03:47:22;98695.75;;;11.01;62.69
75617;BME280;64200;55.426;37.758;2023-04-27T03:52:22;98695.59;;;11.11;62.46
75617;BME280;64200;55.426;37.758;2023-04-27T03:57:23;98703.47;;;11.12;62.44
75617;BME280;64200;55.426;37.758;2023-04-27T04:02:23;98704.47;;;11.09;62.72
75617;BME280;64200;55.426;37.758;2023-04-27T04:07:24;98706.59;;;11.20;62.40
75617;BME280;64200;55.426;37.758;2023-04-27T04:12:24;98715.00;;;11.52;62.50
75617;BME280;64200;55.426;37.758;2023-04-27T04:17:25;98720.44;;;11.67;61.72
75617;BME280;64200;55.426;37.758;2023-04-27T04:22:26;98724.63;;;11.88;61.89
75617;BME280;64200;55.426;37.758;2023-04-27T04:27:26;98718.72;;;12.12;61.17
75617;BME280;64200;55.426;37.758;2023-04-27T04:32:28;98718.91;;;12.46;61.05
75617;BME280;64200;55.426;37.758;2023-04-27T04:37:31;98714.38;;;12.66;60.35
75617;BME280;64200;55.426;37.758;2023-04-27T04:42:31;98733.28;;;12.99;60.22
75617;BME280;64200;55.426;37.758;2023-04-27T04:47:32;98732.31;;;13.20;58.86
75617;BME280;64200;55.426;37.758;2023-04-27T04:52:33;98731.09;;;13.43;58.85
75617;BME280;64200;55.426;37.758;2023-04-27T04:57:34;98740.53;;;13.63;58.31
75617;BME280;64200;55.426;37.758;2023-04-27T05:02:35;98735.69;;;13.75;58.22
75617;BME280;64200;55.426;37.758;2023-04-27T05:07:35;98753.47;;;14.05;57.76
75617;BME280;64200;55.426;37.758;2023-04-27T05:12:36;98773.84;;;14.17;56.45
75617;BME280;64200;55.426;37.758;2023-04-27T05:17:36;98762.06;;;14.36;56.86
75617;BME280;64200;55.426;37.758;2023-04-27T05:22:37;98755.63;;;14.64;56.61
75617;BME280;64200;55.426;37.758;2023-04-27T05:27:38;98758.63;;;14.83;55.53
75617;BME280;64200;55.426;37.758;2023-04-27T05:32:38;98759.97;;;15.18;56.04
75617;BME280;64200;55.426;37.758;2023-04-27T05:37:39;98766.19;;;15.41;54.61
75617;BME280;64200;55.426;37.758;2023-04-27T05:42:39;98765.59;;;15.54;54.04
75617;BME280;64200;55.426;37.758;2023-04-27T05:47:40;98760.50;;;15.88;54.32
75617;BME280;64200;55.426;37.758;2023-04-27T05:52:42;98766.31;;;16.21;53.07
75617;BME280;64200;55.426;37.758;2023-04-27T05:57:42;98775.59;;;16.40;52.80
75617;BME280;64200;55.426;37.758;2023-04-27T06:02:43;98759.06;;;16.56;50.58
75617;BME280;64200;55.426;37.758;2023-04-27T06:07:43;98768.53;;;16.96;50.71
75617;BME280;64200;55.426;37.758;2023-04-27T06:12:44;98782.19;;;17.30;50.41
75617;BME280;64200;55.426;37.758;2023-04-27T06:17:44;98773.13;;;17.70;48.35
75617;BME280;64200;55.426;37.758;2023-04-27T06:22:45;98783.59;;;18.21;47.82
75617;BME280;64200;55.426;37.758;2023-04-27T06:27:46;98790.00;;;18.35;46.54
75617;BME280;64200;55.426;37.758;2023-04-27T06:32:47;98800.22;;;18.65;45.23
75617;BME280;64200;55.426;37.758;2023-04-27T06:37:47;98800.56;;;19.01;44.29
75617;BME280;64200;55.426;37.758;2023-04-27T06:42:48;98799.53;;;19.12;42.83
75617;BME280;64200;55.426;37.758;2023-04-27T06:47:48;98802.41;;;19.33;42.51
75617;BME280;64200;55.426;37.758;2023-04-27T06:52:49;98812.38;;;19.82;41.73
75617;BME280;64200;55.426;37.758;2023-04-27T06:57:49;98804.50;;;20.30;40.28
75617;BME280;64200;55.426;37.758;2023-04-27T07:02:50;98806.66;;;20.16;38.16
75617;BME280;64200;55.426;37.758;2023-04-27T07:07:50;98808.84;;;20.60;39.45
75617;BME280;64200;55.426;37.758;2023-04-27T07:12:51;98809.91;;;21.74;37.72
75617;BME280;64200;55.426;37.758;2023-04-27T07:17:52;98817.34;;;22.24;37.75
75617;BME280;64200;55.426;37.758;2023-04-27T07:22:55;98822.63;;;22.20;35.14
75617;BME280;64200;55.426;37.758;2023-04-27T07:27:56;98813.22;;;23.04;34.65
75617;BME280;64200;55.426;37.758;2023-04-27T07:32:58;98823.41;;;23.23;34.86
75617;BME280;64200;55.426;37.758;2023-04-27T07:38:00;98825.22;;;23.76;32.25
75617;BME280;64200;55.426;37.758;2023-04-27T07:43:07;98833.09;;;24.18;30.81
75617;BME280;64200;55.426;37.758;2023-04-27T07:48:08;98834.50;;;25.13;31.76
75617;BME280;64200;55.426;37.758;2023-04-27T07:53:09;98836.75;;;26.14;29.09
75617;BME280;64200;55.426;37.758;2023-04-27T07:58:10;98842.75;;;26.64;28.50
75617;BME280;64200;55.426;37.758;2023-04-27T08:03:11;98838.22;;;28.20;27.73
75617;BME280;64200;55.426;37.758;2023-04-27T08:08:12;98831.09;;;27.90;24.09
75617;BME280;64200;55.426;37.758;2023-04-27T08:13:12;98835.47;;;25.42;26.22
75617;BME280;64200;55.426;37.758;2023-04-27T08:18:13;98819.56;;;24.27;28.03
75617;BME280;64200;55.426;37.758;2023-04-27T08:23:14;98830.81;;;24.85;29.63
75617;BME280;64200;55.426;37.758;2023-04-27T08:28:14;98829.91;;;26.26;28.04
75617;BME280;64200;55.426;37.758;2023-04-27T08:33:15;98848.19;;;29.49;27.78
75617;BME280;64200;55.426;37.758;2023-04-27T08:38:16;98832.88;;;32.70;22.44
75617;BME280;64200;55.426;37.758;2023-04-27T08:43:16;98839.22;;;32.97;20.29
75617;BME280;64200;55.426;37.758;2023-04-27T08:48:17;98829.88;;;33.42;18.26
75617;BME280;64200;55.426;37.758;2023-04-27T08:53:21;98835.56;;;32.96;18.79
75617;BME280;64200;55.426;37.758;2023-04-27T08:58:34;98836.59;;;32.17;17.45
75617;BME280;64200;55.426;37.758;2023-04-27T09:03:36;98830.84;;;31.92;18.13
75617;BME280;64200;55.426;37.758;2023-04-27T09:08:48;98841.94;;;33.52;17.48
75617;BME280;64200;55.426;37.758;2023-04-27T09:13:49;98839.22;;;35.02;17.01
75617;BME280;64200;55.426;37.758;2023-04-27T09:18:49;98831.16;;;37.37;15.19
75617;BME280;64200;55.426;37.758;2023-04-27T09:23:51;98822.91;;;33.63;15.86
75617;BME280;64200;55.426;37.758;2023-04-27T09:28:54;98813.94;;;32.12;17.99
75617;BME280;64200;55.426;37.758;2023-04-27T09:33:58;98827.78;;;35.24;15.78
75617;BME280;64200;55.426;37.758;2023-04-27T09:39:01;98837.59;;;36.89;12.93
75617;BME280;64200;55.426;37.758;2023-04-27T09:44:06;98823.53;;;37.26;13.95
75617;BME280;64200;55.426;37.758;2023-04-27T09:49:07;98826.97;;;36.56;13.44
75617;BME280;64200;55.426;37.758;2023-04-27T09:54:10;98823.78;;;35.51;14.20
75617;BME280;64200;55.426;37.758;2023-04-27T10:05:01;98833.53;;;37.21;12.25
75617;BME280;64200;55.426;37.758;2023-04-27T10:10:15;98820.34;;;30.08;17.83
75617;BME280;64200;55.426;37.758;2023-04-27T10:15:25;98808.47;;;27.04;21.25
75617;BME280;64200;55.426;37.758;2023-04-27T10:20:36;98808.59;;;25.46;25.13
75617;BME280;64200;55.426;37.758;2023-04-27T10:25:39;98816.75;;;27.39;22.93
75617;BME280;64200;55.426;37.758;2023-04-27T10:30:43;98813.47;;;26.27;22.58
75617;BME280;64200;55.426;37.758;2023-04-27T10:35:56;98820.47;;;24.29;25.38
75617;BME280;64200;55.426;37.758;2023-04-27T10:40:59;98856.91;;;22.06;30.29
75617;BME280;64200;55.426;37.758;2023-04-27T10:46:13;98860.41;;;21.24;32.47
75617;BME280;64200;55.426;37.758;2023-04-27T10:51:15;98846.81;;;21.22;32.86
75617;BME280;64200;55.426;37.758;2023-04-27T10:56:17;98840.78;;;21.26;32.82
75617;BME280;64200;55.426;37.758;2023-04-27T11:01:25;98855.59;;;21.48;33.06
75617;BME280;64200;55.426;37.758;2023-04-27T11:06:30;98863.91;;;22.21;31.90
75617;BME280;64200;55.426;37.758;2023-04-27T11:11:34;98855.56;;;20.96;33.54
75617;BME280;64200;55.426;37.758;2023-04-27T11:16:34;98855.44;;;20.51;34.33
75617;BME280;64200;55.426;37.758;2023-04-27T11:21:35;98852.19;;;21.05;33.81
75617;BME280;64200;55.426;37.758;2023-04-27T11:26:36;98839.50;;;21.43;33.29
75617;BME280;64200;55.426;37.758;2023-04-27T11:31:44;98856.47;;;22.87;31.45
75617;BME280;64200;55.426;37.758;2023-04-27T11:37:02;98857.78;;;25.81;27.21
75617;BME280;64200;55.426;37.758;2023-04-27T11:42:46;98847.53;;;26.42;26.13
75617;BME280;64200;55.426;37.758;2023-04-27T11:47:45;98840.53;;;31.70;20.53
75617;BME280;64200;55.426;37.758;2023-04-27T11:52:47;98849.44;;;34.21;17.90
75617;BME280;64200;55.426;37.758;2023-04-27T11:57:48;98837.09;;;33.57;17.32
75617;BME280;64200;55.426;37.758;2023-04-27T12:02:56;98830.34;;;33.98;17.05
75617;BME280;64200;55.426;37.758;2023-04-27T12:07:57;98816.53;;;35.32;14.90
75617;BME280;64200;55.426;37.758;2023-04-27T12:12:57;98801.91;;;32.03;16.20
75617;BME280;64200;55.426;37.758;2023-04-27T12:17:58;98807.13;;;32.90;17.33
75617;BME280;64200;55.426;37.758;2023-04-27T12:22:59;98807.59;;;32.01;16.06
75617;BME280;64200;55.426;37.758;2023-04-27T12:27:59;98794.38;;;28.61;19.54
75617;BME280;64200;55.426;37.758;2023-04-27T12:33:00;98786.19;;;27.02;21.30
75617;BME280;64200;55.426;37.758;2023-04-27T12:38:01;98798.63;;;24.49;24.45
75617;BME280;64200;55.426;37.758;2023-04-27T12:43:02;98786.91;;;24.20;25.39
75617;BME280;64200;55.426;37.758;2023-04-27T12:48:03;98785.25;;;24.60;25.39
75617;BME280;64200;55.426;37.758;2023-04-27T12:53:04;98784.19;;;25.17;24.64
75617;BME280;64200;55.426;37.758;2023-04-27T12:58:04;98777.16;;;24.48;25.73
75617;BME280;64200;55.426;37.758;2023-04-27T13:03:05;98772.50;;;22.94;26.65
75617;BME280;64200;55.426;37.758;2023-04-27T13:08:06;98764.53;;;23.33;26.86
75617;BME280;64200;55.426;37.758;2023-04-27T13:13:07;98775.72;;;22.90;27.43
75617;BME280;64200;55.426;37.758;2023-04-27T13:18:07;98779.22;;;22.66;28.01
75617;BME280;64200;55.426;37.758;2023-04-27T13:23:08;98773.75;;;22.37;28.03
75617;BME280;64200;55.426;37.758;2023-04-27T13:28:09;98774.72;;;22.08;29.06
75617;BME280;64200;55.426;37.758;2023-04-27T13:33:10;98778.50;;;22.03;28.90
75617;BME280;64200;55.426;37.758;2023-04-27T13:38:14;98773.38;;;21.71;29.69
75617;BME280;64200;55.426;37.758;2023-04-27T13:43:15;98761.47;;;21.80;29.20
75617;BME280;64200;55.426;37.758;2023-04-27T13:48:16;98770.53;;;21.63;29.33
75617;BME280;64200;55.426;37.758;2023-04-27T13:53:18;98772.03;;;21.56;29.30
75617;BME280;64200;55.426;37.758;2023-04-27T13:58:19;98762.38;;;21.52;28.97
75617;BME280;64200;55.426;37.758;2023-04-27T14:03:19;98754.81;;;21.54;29.33
75617;BME280;64200;55.426;37.758;2023-04-27T14:08:20;98761.81;;;21.61;29.44
75617;BME280;64200;55.426;37.758;2023-04-27T14:13:21;98768.41;;;21.48;29.51
75617;BME280;64200;55.426;37.758;2023-04-27T14:18:22;98767.94;;;21.21;30.01
75617;BME280;64200;55.426;37.758;2023-04-27T14:23:22;98761.84;;;21.84;29.51
75617;BME280;64200;55.426;37.758;2023-04-27T14:28:24;98758.22;;;22.15;28.88
75617;BME280;64200;55.426;37.758;2023-04-27T14:33:25;98764.84;;;22.25;28.88
75617;BME280;64200;55.426;37.758;2023-04-27T14:38:26;98749.34;;;22.18;29.06
75617;BME280;64200;55.426;37.758;2023-04-27T14:43:26;98755.41;;;22.22;29.01
75617;BME280;64200;55.426;37.758;2023-04-27T14:48:27;98744.81;;;21.92;29.19
75617;BME280;64200;55.426;37.758;2023-04-27T14:53:28;98749.31;;;21.56;29.67
75617;BME280;64200;55.426;37.758;2023-04-27T14:58:28;98736.81;;;21.36;30.11
75617;BME280;64200;55.426;37.758;2023-04-27T15:03:31;98750.19;;;21.28;30.45
75617;BME280;64200;55.426;37.758;2023-04-27T15:08:32;98738.09;;;21.28;30.40
75617;BME280;64200;55.426;37.758;2023-04-27T15:13:33;98739.56;;;21.13;30.33
75617;BME280;64200;55.426;37.758;2023-04-27T15:18:34;98739.56;;;21.13;30.66
75617;BME280;64200;55.426;37.758;2023-04-27T15:23:34;98745.78;;;21.04;30.66
75617;BME280;64200;55.426;37.758;2023-04-27T15:28:36;98747.41;;;20.84;31.15
75617;BME280;64200;55.426;37.758;2023-04-27T15:33:37;98747.00;;;20.80;31.35
75617;BME280;64200;55.426;37.758;2023-04-27T15:38:38;98743.16;;;20.69;31.72
75617;BME280;64200;55.426;37.758;2023-04-27T15:43:39;98750.59;;;20.51;32.05
75617;BME280;64200;55.426;37.758;2023-04-27T15:48:39;98756.44;;;20.46;32.32
75617;BME280;64200;55.426;37.758;2023-04-27T15:53:40;98764.91;;;20.46;32.34
75617;BME280;64200;55.426;37.758;2023-04-27T15:58:41;98763.31;;;20.29;32.92
75617;BME280;64200;55.426;37.758;2023-04-27T16:03:41;98768.41;;;20.31;32.85
75617;BME280;64200;55.426;37.758;2023-04-27T16:08:42;98762.06;;;20.09;32.96
75617;BME280;64200;55.426;37.758;2023-04-27T16:13:42;98777.72;;;19.68;34.32
75617;BME280;64200;55.426;37.758;2023-04-27T16:18:43;98785.28;;;19.73;34.68
75617;BME280;64200;55.426;37.758;2023-04-27T16:23:43;98779.97;;;19.70;34.19
75617;BME280;64200;55.426;37.758;2023-04-27T16:28:44;98785.16;;;19.58;34.50
75617;BME280;64200;55.426;37.758;2023-04-27T16:33:45;98787.69;;;19.48;34.85
75617;BME280;64200;55.426;37.758;2023-04-27T16:38:46;98778.44;;;19.47;34.59
75617;BME280;64200;55.426;37.758;2023-04-27T16:43:47;98775.97;;;19.44;34.43
75617;BME280;64200;55.426;37.758;2023-04-27T16:48:47;98773.59;;;19.35;35.21
75617;BME280;64200;55.426;37.758;2023-04-27T16:53:48;98775.78;;;19.28;35.66
75617;BME280;64200;55.426;37.758;2023-04-27T16:58:49;98788.00;;;19.23;35.74
75617;BME280;64200;55.426;37.758;2023-04-27T17:03:50;98790.19;;;19.04;36.25
75617;BME280;64200;55.426;37.758;2023-04-27T17:08:51;98791.31;;;18.87;36.62
75617;BME280;64200;55.426;37.758;2023-04-27T17:13:52;98793.81;;;18.77;36.89
75617;BME280;64200;55.426;37.758;2023-04-27T17:18:53;98786.31;;;18.67;36.76
75617;BME280;64200;55.426;37.758;2023-04-27T17:23:53;98801.22;;;18.67;36.95
75617;BME280;64200;55.426;37.758;2023-04-27T17:28:54;98801.22;;;18.54;37.66
75617;BME280;64200;55.426;37.758;2023-04-27T17:33:59;98799.78;;;18.47;37.65
75617;BME280;64200;55.426;37.758;2023-04-27T17:38:59;98803.78;;;18.38;38.03
75617;BME280;64200;55.426;37.758;2023-04-27T17:44:00;98796.09;;;18.25;38.81
75617;BME280;64200;55.426;37.758;2023-04-27T17:49:01;98799.75;;;18.20;38.86
75617;BME280;64200;55.426;37.758;2023-04-27T17:54:01;98799.84;;;18.15;38.42
75617;BME280;64200;55.426;37.758;2023-04-27T17:59:03;98800.06;;;18.03;39.80
75617;BME280;64200;55.426;37.758;2023-04-27T18:04:03;98803.28;;;17.94;39.65
75617;BME280;64200;55.426;37.758;2023-04-27T18:09:06;98795.97;;;17.85;39.31
75617;BME280;64200;55.426;37.758;2023-04-27T18:14:06;98788.88;;;17.79;39.51
75617;BME280;64200;55.426;37.758;2023-04-27T18:19:07;98785.94;;;17.71;39.78
75617;BME280;64200;55.426;37.758;2023-04-27T18:24:08;98786.56;;;17.64;40.16
75617;BME280;64200;55.426;37.758;2023-04-27T18:29:08;98799.31;;;17.51;40.73
75617;BME280;64200;55.426;37.758;2023-04-27T18:34:09;98787.00;;;17.35;40.84
75617;BME280;64200;55.426;37.758;2023-04-27T18:39:10;98779.81;;;17.15;40.84
75617;BME280;64200;55.426;37.758;2023-04-27T18:44:11;98783.50;;;17.10;41.63
75617;BME280;64200;55.426;37.758;2023-04-27T18:49:11;98784.16;;;16.97;41.72
75617;BME280;64200;55.426;37.758;2023-04-27T18:54:12;98782.75;;;16.85;42.42
75617;BME280;64200;55.426;37.758;2023-04-27T18:59:12;98774.22;;;16.72;42.44
75617;BME280;64200;55.426;37.758;2023-04-27T19:04:13;98775.34;;;16.63;42.83
75617;BME280;64200;55.426;37.758;2023-04-27T19:09:15;98775.78;;;16.48;43.50
75617;BME280;64200;55.426;37.758;2023-04-27T19:14:19;98763.22;;;16.24;44.22
75617;BME280;64200;55.426;37.758;2023-04-27T19:19:25;98758.75;;;16.10;44.77
75617;BME280;64200;55.426;37.758;2023-04-27T19:24:27;98757.28;;;16.03;45.00
75617;BME280;64200;55.426;37.758;2023-04-27T19:29:30;98760.44;;;15.94;45.61
75617;BME280;64200;55.426;37.758;2023-04-27T19:34:30;98767.69;;;15.84;46.21
75617;BME280;64200;55.426;37.758;2023-04-27T19:39:33;98760.97;;;15.62;46.30
75617;BME280;64200;55.426;37.758;2023-04-27T19:44:34;98766.59;;;15.62;47.34
75617;BME280;64200;55.426;37.758;2023-04-27T19:49:35;98774.34;;;15.50;47.35
75617;BME280;64200;55.426;37.758;2023-04-27T19:54:36;98765.16;;;15.44;47.45
75617;BME280;64200;55.426;37.758;2023-04-27T19:59:37;98748.59;;;15.40;47.41
75617;BME280;64200;55.426;37.758;2023-04-27T20:04:37;98768.78;;;15.39;47.44
75617;BME280;64200;55.426;37.758;2023-04-27T20:09:39;98765.03;;;15.25;48.00
75617;BME280;64200;55.426;37.758;2023-04-27T20:14:39;98755.41;;;15.15;48.43
75617;BME280;64200;55.426;37.758;2023-04-27T20:19:41;98761.81;;;15.09;48.49
75617;BME280;64200;55.426;37.758;2023-04-27T20:24:42;98751.94;;;14.97;49.11
75617;BME280;64200;55.426;37.758;2023-04-27T20:29:43;98758.28;;;15.03;48.70
75617;BME280;64200;55.426;37.758;2023-04-27T20:34:45;98761.91;;;14.92;49.39
75617;BME280;64200;55.426;37.758;2023-04-27T20:39:46;98765.25;;;14.85;49.71
75617;BME280;64200;55.426;37.758;2023-04-27T20:44:46;98766.31;;;14.77;50.51
75617;BME280;64200;55.426;37.758;2023-04-27T20:49:47;98764.56;;;14.68;50.70
75617;BME280;64200;55.426;37.758;2023-04-27T20:54:48;98767.66;;;14.64;51.22
75617;BME280;64200;55.426;37.758;2023-04-27T20:59:48;98766.84;;;14.58;51.22
75617;BME280;64200;55.426;37.758;2023-04-27T21:04:49;98777.31;;;14.57;51.32
75617;BME280;64200;55.426;37.758;2023-04-27T21:09:50;98766.91;;;14.41;52.17
75617;BME280;64200;55.426;37.758;2023-04-27T21:14:50;98776.63;;;14.34;52.11
75617;BME280;64200;55.426;37.758;2023-04-27T21:19:51;98764.16;;;14.24;52.40
75617;BME280;64200;55.426;37.758;2023-04-27T21:24:52;98778.97;;;14.19;52.96
75617;BME280;64200;55.426;37.758;2023-04-27T21:29:52;98767.75;;;14.19;52.74
75617;BME280;64200;55.426;37.758;2023-04-27T21:34:53;98779.22;;;14.04;53.80
75617;BME280;64200;55.426;37.758;2023-04-27T21:39:53;98767.25;;;13.81;54.47
75617;BME280;64200;55.426;37.758;2023-04-27T21:44:55;98766.50;;;13.69;55.18
75617;BME280;64200;55.426;37.758;2023-04-27T21:49:56;98762.94;;;13.57;55.77
75617;BME280;64200;55.426;37.758;2023-04-27T21:54:56;98763.94;;;13.48;55.89
75617;BME280;64200;55.426;37.758;2023-04-27T21:59:57;98763.69;;;13.41;56.55
75617;BME280;64200;55.426;37.758;2023-04-27T22:04:58;98758.09;;;13.41;56.52
75617;BME280;64200;55.426;37.758;2023-04-27T22:09:58;98751.44;;;13.27;56.99
75617;BME280;64200;55.426;37.758;2023-04-27T22:14:59;98746.63;;;13.39;56.69
75617;BME280;64200;55.426;37.758;2023-04-27T22:20:00;98746.13;;;13.46;56.22
75617;BME280;64200;55.426;37.758;2023-04-27T22:25:00;98751.22;;;13.53;55.75
75617;BME280;64200;55.426;37.758;2023-04-27T22:30:02;98753.00;;;13.39;56.34
75617;BME280;64200;55.426;37.758;2023-04-27T22:35:02;98753.47;;;13.21;56.87
75617;BME280;64200;55.426;37.758;2023-04-27T22:40:05;98757.53;;;13.25;57.14
75617;BME280;64200;55.426;37.758;2023-04-27T22:45:08;98748.16;;;13.34;56.34
75617;BME280;64200;55.426;37.758;2023-04-27T22:50:09;98751.44;;;13.38;55.90
75617;BME280;64200;55.426;37.758;2023-04-27T22:55:12;98753.94;;;13.13;57.15
75617;BME280;64200;55.426;37.758;2023-04-27T23:00:13;98753.69;;;13.11;56.81
75617;BME280;64200;55.426;37.758;2023-04-27T23:05:14;98740.47;;;13.17;56.78
75617;BME280;64200;55.426;37.758;2023-04-27T23:10:16;98747.16;;;13.43;55.96
75617;BME280;64200;55.426;37.758;2023-04-27T23:15:18;98757.03;;;13.27;56.32
75617;BME280;64200;55.426;37.758;2023-04-27T23:20:18;98756.44;;;12.89;57.39
75617;BME280;64200;55.426;37.758;2023-04-27T23:25:19;98754.09;;;12.76;57.64
75617;BME280;64200;55.426;37.758;2023-04-27T23:30:20;98753.28;;;12.64;58.84
75617;BME280;64200;55.426;37.758;2023-04-27T23:35:21;98746.41;;;12.65;58.76
75617;BME280;64200;55.426;37.758;2023-04-27T23:40:22;98755.81;;;12.62;59.28
75617;BME280;64200;55.426;37.758;2023-04-27T23:45:22;98748.91;;;12.52;58.83
75617;BME280;64200;55.426;37.758;2023-04-27T23:50:23;98749.44;;;12.56;59.22
75617;BME280;64200;55.426;37.758;2023-04-27T23:55:23;98747.56;;;12.36;59.88
